createdAt,value
2018-10-16T00:00:31.279Z,57.40
2018-10-16T00:03:00.256Z,57.30
2018-10-16T00:05:29.378Z,57.30
2018-10-16T00:07:58.339Z,57.20
2018-10-16T00:10:33.001Z,57.00
2018-10-16T00:13:01.926Z,56.90
2018-10-16T00:15:31.422Z,56.90
2018-10-16T00:18:00.512Z,56.90
2018-10-16T00:20:29.663Z,56.90
2018-10-16T00:22:58.600Z,56.80
2018-10-16T00:25:27.567Z,56.80
2018-10-16T00:27:56.834Z,56.80
2018-10-16T00:30:25.778Z,56.80
2018-10-16T00:32:54.740Z,56.90
2018-10-16T00:35:23.681Z,56.90
2018-10-16T00:37:55.614Z,57.00
2018-10-16T00:40:24.579Z,57.00
2018-10-16T00:42:53.540Z,57.00
2018-10-16T00:45:22.451Z,57.00
2018-10-16T00:47:51.424Z,57.00
2018-10-16T00:50:20.364Z,57.10
2018-10-16T00:52:49.303Z,57.00
2018-10-16T00:55:18.238Z,57.00
2018-10-16T00:57:47.169Z,57.10
2018-10-16T01:00:16.437Z,57.20
2018-10-16T01:02:45.570Z,57.30
2018-10-16T01:05:14.824Z,57.30
2018-10-16T01:07:44.141Z,57.40
2018-10-16T01:10:13.495Z,57.50
2018-10-16T01:12:42.490Z,57.50
2018-10-16T01:15:12.279Z,57.60
2018-10-16T01:17:47.475Z,57.70
2018-10-16T01:20:16.425Z,57.70
2018-10-16T01:22:45.363Z,57.70
2018-10-16T01:25:14.315Z,57.70
2018-10-16T01:27:43.239Z,57.70
2018-10-16T01:30:12.187Z,57.80
2018-10-16T01:32:41.295Z,57.90
2018-10-16T01:35:11.317Z,57.90
2018-10-16T01:37:40.551Z,57.90
2018-10-16T01:40:10.325Z,57.80
2018-10-16T01:42:39.261Z,57.80
2018-10-16T01:45:08.605Z,57.90
2018-10-16T01:47:37.605Z,57.90
2018-10-16T01:50:06.720Z,58.00
2018-10-16T01:52:35.677Z,58.10
2018-10-16T01:55:04.652Z,58.30
2018-10-16T01:57:33.597Z,58.40
2018-10-16T02:00:02.521Z,58.50
2018-10-16T02:02:31.500Z,58.50
2018-10-16T02:05:00.622Z,58.60
2018-10-16T02:07:29.578Z,58.60
2018-10-16T02:09:58.512Z,58.70
2018-10-16T02:12:27.460Z,58.70
2018-10-16T02:14:56.517Z,58.80
2018-10-16T02:17:25.506Z,58.90
2018-10-16T02:19:54.450Z,59.00
2018-10-16T02:22:23.368Z,59.10
2018-10-16T02:24:52.291Z,59.20
2018-10-16T02:27:21.212Z,59.20
2018-10-16T02:29:50.134Z,59.30
2018-10-16T02:32:19.074Z,59.40
2018-10-16T02:34:48.226Z,59.50
2018-10-16T02:37:17.194Z,59.60
2018-10-16T02:39:46.116Z,59.70
2018-10-16T02:42:15.105Z,59.80
2018-10-16T02:44:44.053Z,59.90
2018-10-16T02:47:13.172Z,59.90
2018-10-16T02:49:42.092Z,59.90
2018-10-16T02:52:11.029Z,60.00
2018-10-16T02:54:40.346Z,60.00
2018-10-16T02:57:09.275Z,60.00
2018-10-16T02:59:38.219Z,60.00
2018-10-16T03:02:07.331Z,60.00
2018-10-16T03:04:36.321Z,60.00
2018-10-16T03:07:05.711Z,60.00
2018-10-16T03:09:34.663Z,60.10
2018-10-16T03:12:03.927Z,60.00
2018-10-16T03:14:32.871Z,59.90
2018-10-16T03:17:02.128Z,59.90
2018-10-16T03:19:31.073Z,59.90
2018-10-16T03:22:00.031Z,59.90
2018-10-16T03:24:29.007Z,59.90
2018-10-16T03:26:58.233Z,59.90
2018-10-16T03:29:27.413Z,60.00
2018-10-16T03:31:56.350Z,60.00
2018-10-16T03:34:25.264Z,60.10
2018-10-16T03:36:54.213Z,60.10
2018-10-16T03:39:23.491Z,60.10
2018-10-16T03:41:52.436Z,60.20
2018-10-16T03:44:21.371Z,60.30
2018-10-16T03:46:50.347Z,60.30
2018-10-16T03:49:19.272Z,61.20
2018-10-16T03:51:48.181Z,60.50
2018-10-16T03:54:17.109Z,60.60
2018-10-16T03:56:46.069Z,60.70
2018-10-16T03:59:15.015Z,60.80
2018-10-16T04:01:43.941Z,60.80
2018-10-16T04:04:12.869Z,60.90
2018-10-16T04:06:41.815Z,61.00
2018-10-16T04:09:10.907Z,61.00
2018-10-16T04:11:39.795Z,61.10
2018-10-16T04:14:08.834Z,61.10
2018-10-16T04:16:37.913Z,61.20
2018-10-16T04:19:06.887Z,61.30
2018-10-16T04:21:41.159Z,61.30
2018-10-16T04:24:10.134Z,61.50
2018-10-16T04:26:39.419Z,61.50
2018-10-16T04:29:09.672Z,61.50
2018-10-16T04:31:38.833Z,61.50
2018-10-16T04:34:08.457Z,61.50
2018-10-16T04:36:37.423Z,61.40
2018-10-16T04:39:09.406Z,61.50
2018-10-16T04:41:38.427Z,61.50
2018-10-16T04:44:07.456Z,61.70
2018-10-16T04:46:36.432Z,61.80
2018-10-16T04:49:05.993Z,61.70
2018-10-16T04:51:35.305Z,61.80
2018-10-16T04:54:04.375Z,61.90
2018-10-16T04:56:33.418Z,62.00
2018-10-16T04:59:02.336Z,62.00
2018-10-16T05:01:31.354Z,62.00
2018-10-16T05:04:00.379Z,62.00
2018-10-16T05:06:29.520Z,62.10
2018-10-16T05:08:58.459Z,62.10
2018-10-16T05:11:27.447Z,62.10
2018-10-16T05:13:56.394Z,62.20
2018-10-16T05:16:25.316Z,62.20
2018-10-16T05:18:54.369Z,62.20
2018-10-16T05:21:23.500Z,62.30
2018-10-16T05:23:52.412Z,62.30
2018-10-16T05:26:21.368Z,63.10
2018-10-16T05:28:50.356Z,62.40
2018-10-16T05:31:19.495Z,62.50
2018-10-16T05:33:48.487Z,62.50
2018-10-16T05:36:17.410Z,62.70
2018-10-16T05:38:46.393Z,62.70
2018-10-16T05:41:15.405Z,62.70
2018-10-16T05:43:44.381Z,62.80
2018-10-16T05:46:13.385Z,62.80
2018-10-16T05:48:42.376Z,62.80
2018-10-16T05:51:11.745Z,62.90
2018-10-16T05:53:40.728Z,62.90
2018-10-16T05:56:09.640Z,62.80
2018-10-16T05:58:38.705Z,63.60
2018-10-16T06:01:07.625Z,62.90
2018-10-16T06:03:36.583Z,62.90
2018-10-16T06:06:05.720Z,62.80
2018-10-16T06:08:34.695Z,62.70
2018-10-16T06:11:03.629Z,62.70
2018-10-16T06:13:32.606Z,62.50
2018-10-16T06:16:01.576Z,62.60
2018-10-16T06:18:30.677Z,62.60
2018-10-16T06:20:59.706Z,62.50
2018-10-16T06:23:28.618Z,62.50
2018-10-16T06:25:57.592Z,62.30
2018-10-16T06:28:27.606Z,62.10
2018-10-16T06:30:56.556Z,61.80
2018-10-16T06:33:28.159Z,61.60
2018-10-16T06:35:57.553Z,61.50
2018-10-16T06:38:26.535Z,61.50
2018-10-16T06:40:55.614Z,61.30
2018-10-16T06:43:24.696Z,61.30
2018-10-16T06:45:53.998Z,61.10
2018-10-16T06:48:23.196Z,61.00
2018-10-16T06:50:52.139Z,60.80
2018-10-16T06:53:21.487Z,60.80
2018-10-16T06:55:50.564Z,60.60
2018-10-16T06:58:19.750Z,60.50
2018-10-16T07:00:48.707Z,60.40
2018-10-16T07:03:17.667Z,60.10
2018-10-16T07:05:46.630Z,60.30
2018-10-16T07:08:15.903Z,60.20
2018-10-16T07:10:44.953Z,60.30
2018-10-16T07:13:13.916Z,60.30
2018-10-16T07:15:42.877Z,60.10
2018-10-16T07:18:11.818Z,60.00
2018-10-16T07:20:41.134Z,59.90
2018-10-16T07:23:10.360Z,59.90
2018-10-16T07:25:39.421Z,59.70
2018-10-16T07:28:08.360Z,59.70
2018-10-16T07:30:37.300Z,59.50
2018-10-16T07:33:06.252Z,59.40
2018-10-16T07:35:35.179Z,59.30
2018-10-16T07:38:04.275Z,59.30
2018-10-16T07:40:33.375Z,59.20
2018-10-16T07:43:02.369Z,59.20
2018-10-16T07:45:31.333Z,59.10
2018-10-16T07:48:00.301Z,59.00
2018-10-16T07:50:29.290Z,59.00
2018-10-16T07:52:58.303Z,58.40
2018-10-16T07:55:27.244Z,58.80
2018-10-16T07:57:56.224Z,58.80
2018-10-16T08:00:25.196Z,58.80
2018-10-16T08:02:54.219Z,58.70
2018-10-16T08:05:23.179Z,58.70
2018-10-16T08:07:52.149Z,58.70
2018-10-16T08:10:21.126Z,58.70
2018-10-16T08:12:50.065Z,58.80
2018-10-16T08:15:19.037Z,58.80
2018-10-16T08:17:47.964Z,58.60
2018-10-16T08:20:16.938Z,58.60
2018-10-16T08:22:45.894Z,58.50
2018-10-16T08:25:14.848Z,58.40
2018-10-16T08:27:43.813Z,58.30
2018-10-16T08:30:12.739Z,58.20
2018-10-16T08:32:41.657Z,58.10
2018-10-16T08:35:10.638Z,58.00
2018-10-16T08:39:47.778Z,57.80
2018-10-16T08:43:26.166Z,57.70
2018-10-16T08:46:06.425Z,57.40
2018-10-16T08:48:46.791Z,57.00
2018-10-16T08:51:28.882Z,56.90
2018-10-16T08:53:57.880Z,56.60
2018-10-16T08:56:26.907Z,56.50
2018-10-16T08:58:55.846Z,56.40
2018-10-16T09:01:24.810Z,56.30
2018-10-16T09:03:54.247Z,56.30
2018-10-16T09:06:23.192Z,56.40
2018-10-16T09:08:52.127Z,56.50
2018-10-16T09:11:21.064Z,56.60
2018-10-16T09:13:50.114Z,56.70
2018-10-16T09:16:19.359Z,56.90
2018-10-16T09:18:48.352Z,56.90
2018-10-16T09:21:17.312Z,56.80
2018-10-16T09:23:46.350Z,56.60
2018-10-16T09:26:15.316Z,56.40
2018-10-16T09:28:44.271Z,56.30
2018-10-16T09:31:13.280Z,56.20
2018-10-16T09:33:42.361Z,56.20
2018-10-16T09:36:11.405Z,56.20
2018-10-16T09:38:40.389Z,56.10
2018-10-16T09:41:09.691Z,56.00
2018-10-16T09:43:38.617Z,56.00
2018-10-16T09:46:07.583Z,55.90
2018-10-16T09:48:36.585Z,55.80
2018-10-16T09:51:06.301Z,55.70
2018-10-16T09:53:35.363Z,55.50
2018-10-16T09:56:04.576Z,55.50
2018-10-16T09:58:33.535Z,55.40
2018-10-16T10:01:07.993Z,55.40
2018-10-16T10:03:36.926Z,55.60
2018-10-16T10:06:06.295Z,55.40
2018-10-16T10:08:35.276Z,55.50
2018-10-16T10:11:04.649Z,55.70
2018-10-16T10:13:33.781Z,56.00
2018-10-16T10:16:02.709Z,56.10
2018-10-16T10:18:31.670Z,55.70
2018-10-16T10:21:00.754Z,55.80
2018-10-16T10:23:29.788Z,56.20
2018-10-16T10:25:58.872Z,56.30
2018-10-16T10:28:27.846Z,56.00
2018-10-16T10:30:56.908Z,55.90
2018-10-16T10:33:25.860Z,55.80
2018-10-16T10:35:54.814Z,55.60
2018-10-16T10:38:23.809Z,55.40
2018-10-16T10:40:52.787Z,55.30
2018-10-16T10:43:21.776Z,55.10
2018-10-16T10:45:50.754Z,55.00
2018-10-16T10:48:19.753Z,55.00
2018-10-16T10:50:48.936Z,55.00
2018-10-16T10:53:17.973Z,55.00
2018-10-16T10:55:47.324Z,54.90
2018-10-16T10:58:16.347Z,55.00
2018-10-16T11:00:45.371Z,54.90
2018-10-16T11:03:14.398Z,54.80
2018-10-16T11:05:43.494Z,54.80
2018-10-16T11:08:12.472Z,54.70
2018-10-16T11:10:41.440Z,54.60
2018-10-16T11:13:10.466Z,54.60
2018-10-16T11:15:39.428Z,54.60
2018-10-16T11:18:08.408Z,54.50
2018-10-16T11:20:37.410Z,54.40
2018-10-16T11:23:06.365Z,54.50
2018-10-16T11:25:35.312Z,54.20
2018-10-16T11:28:04.719Z,54.20
2018-10-16T11:30:33.677Z,54.10
2018-10-16T11:33:02.678Z,54.00
2018-10-16T11:35:31.850Z,54.00
2018-10-16T11:38:01.144Z,53.90
2018-10-16T11:40:30.123Z,53.90
2018-10-16T11:42:59.058Z,54.30
2018-10-16T11:45:28.013Z,54.20
2018-10-16T11:47:56.954Z,54.20
2018-10-16T11:50:25.926Z,54.20
2018-10-16T11:52:54.883Z,54.00
2018-10-16T11:55:23.858Z,53.80
2018-10-16T11:57:52.773Z,53.70
2018-10-16T12:00:24.273Z,53.60
2018-10-16T12:02:53.679Z,53.50
2018-10-16T12:05:23.141Z,53.40
2018-10-16T12:07:52.242Z,53.20
2018-10-16T12:10:21.418Z,53.60
2018-10-16T12:12:50.471Z,53.70
2018-10-16T12:15:19.587Z,53.90
2018-10-16T12:17:53.906Z,54.00
2018-10-16T12:20:26.943Z,54.20
2018-10-16T12:22:55.939Z,54.40
2018-10-16T12:25:24.898Z,54.60
2018-10-16T12:27:53.873Z,54.80
2018-10-16T12:30:23.260Z,55.00
2018-10-16T12:32:52.208Z,55.10
2018-10-16T12:35:21.149Z,55.10
2018-10-16T12:37:50.152Z,54.90
2018-10-16T12:40:19.244Z,54.60
2018-10-16T12:42:48.403Z,54.40
2018-10-16T12:45:17.500Z,54.30
2018-10-16T12:47:46.514Z,54.30
2018-10-16T12:50:15.528Z,54.20
2018-10-16T12:52:44.650Z,54.20
2018-10-16T12:55:13.676Z,54.10
2018-10-16T12:57:42.700Z,54.10
2018-10-16T13:00:12.067Z,54.10
2018-10-16T13:02:41.219Z,54.10
2018-10-16T13:05:10.429Z,54.20
2018-10-16T13:07:39.955Z,54.20
2018-10-16T13:10:12.236Z,54.30
2018-10-16T13:12:42.100Z,54.30
2018-10-16T13:15:12.684Z,54.20
2018-10-16T13:17:41.808Z,54.30
2018-10-16T13:20:12.331Z,54.30
2018-10-16T13:22:42.063Z,54.30
2018-10-16T13:25:12.456Z,54.30
2018-10-16T13:27:41.464Z,54.30
2018-10-16T13:30:12.134Z,54.40
2018-10-16T13:32:41.201Z,54.40
2018-10-16T13:35:12.819Z,54.60
2018-10-16T13:37:42.265Z,54.70
2018-10-16T13:40:11.673Z,54.90
2018-10-16T13:42:40.998Z,55.00
2018-10-16T13:45:11.015Z,55.20
2018-10-16T13:47:39.946Z,55.40
2018-10-16T13:50:11.606Z,55.50
2018-10-16T13:52:40.848Z,55.60
2018-10-16T13:55:10.608Z,55.70
2018-10-16T13:57:40.259Z,56.00
2018-10-16T14:00:15.156Z,56.30
2018-10-16T14:02:45.653Z,56.80
2018-10-16T14:05:14.667Z,57.30
2018-10-16T14:07:43.757Z,57.80
2018-10-16T14:10:13.807Z,57.90
2018-10-16T14:12:44.223Z,58.10
2018-10-16T14:15:14.147Z,58.20
2018-10-16T14:17:43.207Z,58.10
2018-10-16T14:20:12.341Z,58.40
2018-10-16T14:22:42.497Z,58.50
2018-10-16T14:25:13.013Z,58.60
2018-10-16T14:27:42.419Z,59.00
2018-10-16T14:30:13.515Z,58.90
2018-10-16T14:32:43.233Z,59.20
2018-10-16T14:35:12.926Z,59.40
2018-10-16T14:37:42.158Z,59.60
2018-10-16T14:40:13.022Z,59.90
2018-10-16T14:42:42.296Z,60.30
2018-10-16T14:45:13.779Z,60.80
2018-10-16T14:47:43.196Z,61.20
2018-10-16T14:50:14.372Z,61.40
2018-10-16T14:52:43.559Z,61.30
2018-10-16T14:55:12.572Z,61.20
2018-10-16T14:57:41.590Z,61.30
2018-10-16T15:00:11.762Z,61.40
2018-10-16T15:02:40.864Z,61.50
2018-10-16T15:05:10.788Z,61.70
2018-10-16T15:07:40.114Z,61.90
2018-10-16T15:10:10.001Z,61.90
2018-10-16T15:12:39.134Z,61.40
2018-10-16T15:15:08.719Z,61.00
2018-10-16T15:17:37.636Z,61.00
2018-10-16T15:20:08.452Z,60.90
2018-10-16T15:22:37.620Z,60.50
2018-10-16T15:25:07.662Z,60.30
2018-10-16T15:27:36.702Z,60.20
2018-10-16T15:30:08.536Z,60.10
2018-10-16T15:32:40.648Z,60.00
2018-10-16T15:35:12.180Z,60.00
2018-10-16T15:37:42.042Z,60.10
2018-10-16T15:40:12.607Z,60.10
2018-10-16T15:42:42.727Z,60.30
2018-10-16T15:45:12.515Z,60.60
2018-10-16T15:47:41.970Z,60.90
2018-10-16T15:50:11.666Z,61.20
2018-10-16T15:52:41.171Z,61.40
2018-10-16T15:55:11.305Z,61.80
2018-10-16T15:57:40.344Z,62.10
2018-10-16T16:00:12.047Z,62.60
2018-10-16T16:02:41.154Z,62.80
2018-10-16T16:05:10.173Z,63.00
2018-10-16T16:07:39.119Z,63.20
2018-10-16T16:10:10.231Z,63.50
2018-10-16T16:12:39.430Z,63.50
2018-10-16T16:15:09.560Z,63.50
2018-10-16T16:17:38.585Z,63.80
2018-10-16T16:20:09.086Z,63.70
2018-10-16T16:22:38.207Z,64.10
2018-10-16T16:25:09.203Z,64.30
2018-10-16T16:27:38.422Z,64.60
2018-10-16T16:30:09.432Z,64.90
2018-10-16T16:32:38.843Z,65.20
2018-10-16T16:35:07.835Z,65.50
2018-10-16T16:37:37.008Z,65.90
2018-10-16T16:40:09.718Z,66.20
2018-10-16T16:42:38.754Z,66.50
2018-10-16T16:45:08.289Z,66.80
2018-10-16T16:47:37.339Z,67.00
2018-10-16T16:50:07.667Z,67.10
2018-10-16T16:52:36.865Z,67.40
2018-10-16T16:55:07.465Z,67.60
2018-10-16T16:57:36.424Z,68.10
2018-10-16T17:00:05.605Z,68.10
2018-10-16T17:02:34.656Z,68.40
2018-10-16T17:05:03.696Z,68.60
2018-10-16T17:07:32.652Z,68.70
2018-10-16T17:10:01.809Z,68.80
2018-10-16T17:12:30.946Z,69.00
2018-10-16T17:15:00.070Z,69.10
2018-10-16T17:17:29.049Z,69.10
2018-10-16T17:19:58.051Z,69.30
2018-10-16T17:22:27.155Z,69.40
2018-10-16T17:24:56.255Z,69.50
2018-10-16T17:27:25.311Z,69.60
2018-10-16T17:29:54.249Z,69.90
2018-10-16T17:32:23.543Z,70.20
2018-10-16T17:34:52.491Z,70.50
2018-10-16T17:37:21.397Z,70.80
2018-10-16T17:39:50.327Z,71.20
2018-10-16T17:42:19.258Z,71.60
2018-10-16T17:44:48.229Z,72.00
2018-10-16T17:47:17.157Z,72.20
2018-10-16T17:49:46.134Z,72.30
2018-10-16T17:52:15.128Z,72.50
2018-10-16T17:54:44.025Z,72.70
2018-10-16T17:57:12.999Z,72.90
2018-10-16T17:59:42.103Z,73.30
2018-10-16T18:02:11.035Z,73.70
2018-10-16T18:04:40.069Z,74.10
2018-10-16T18:07:09.146Z,74.60
2018-10-16T18:09:38.085Z,75.10
2018-10-16T18:12:07.249Z,75.50
2018-10-16T18:14:36.214Z,75.80
2018-10-16T18:17:05.506Z,76.80
2018-10-16T18:19:34.485Z,76.30
2018-10-16T18:22:03.453Z,76.60
2018-10-16T18:24:32.435Z,77.00
2018-10-16T18:27:01.431Z,77.30
2018-10-16T18:29:30.623Z,77.60
2018-10-16T18:31:59.605Z,77.90
2018-10-16T18:34:28.545Z,78.00
2018-10-16T18:36:57.524Z,78.30
2018-10-16T18:39:26.606Z,78.40
2018-10-16T18:41:55.680Z,78.70
2018-10-16T18:44:24.711Z,78.90
2018-10-16T18:46:53.797Z,79.20
2018-10-16T18:49:22.762Z,79.40
2018-10-16T18:51:51.722Z,79.60
2018-10-16T18:54:20.741Z,79.70
2018-10-16T18:56:49.850Z,79.90
2018-10-16T18:59:18.828Z,80.00
2018-10-16T19:01:47.780Z,80.40
2018-10-16T19:04:16.768Z,80.50
2018-10-16T19:06:45.720Z,80.70
2018-10-16T19:09:14.820Z,80.70
2018-10-16T19:11:44.054Z,80.90
2018-10-16T19:14:13.037Z,81.00
2018-10-16T19:16:42.024Z,81.30
2018-10-16T19:19:10.996Z,81.50
2018-10-16T19:21:39.950Z,81.70
2018-10-16T19:24:08.926Z,81.90
2018-10-16T19:26:37.938Z,81.90
2018-10-16T19:29:06.920Z,82.10
2018-10-16T19:31:36.234Z,82.30
2018-10-16T19:34:05.562Z,82.50
2018-10-16T19:36:34.507Z,82.60
2018-10-16T19:39:03.616Z,82.70
2018-10-16T19:41:32.747Z,83.00
2018-10-16T19:44:01.707Z,83.00
2018-10-16T19:46:30.664Z,83.20
2018-10-16T19:48:59.591Z,84.00
2018-10-16T19:51:28.749Z,83.40
2018-10-16T19:53:57.696Z,83.60
2018-10-16T19:56:26.664Z,83.90
2018-10-16T19:58:55.861Z,83.90
2018-10-16T20:01:24.791Z,83.90
2018-10-16T20:03:53.765Z,84.80
2018-10-16T20:06:22.729Z,84.20
2018-10-16T20:08:51.932Z,84.20
2018-10-16T20:11:21.082Z,84.50
2018-10-16T20:13:50.246Z,84.50
2018-10-16T20:16:19.290Z,84.50
2018-10-16T20:18:48.234Z,84.80
2018-10-16T20:21:17.512Z,85.00
2018-10-16T20:23:46.495Z,85.20
2018-10-16T20:26:15.522Z,85.20
2018-10-16T20:28:44.502Z,85.30
2018-10-16T20:31:13.499Z,85.50
2018-10-16T20:33:42.642Z,85.70
2018-10-16T20:36:11.663Z,85.90
2018-10-16T20:38:40.625Z,85.90
2018-10-16T20:41:09.613Z,85.90
2018-10-16T20:43:38.576Z,86.00
2018-10-16T20:46:07.630Z,86.20
2018-10-16T20:48:36.577Z,86.40
2018-10-16T20:51:05.977Z,86.50
2018-10-16T20:53:34.927Z,86.60
2018-10-16T20:56:03.913Z,86.70
2018-10-16T20:58:33.226Z,86.90
2018-10-16T21:01:02.359Z,87.00
2018-10-16T21:03:31.533Z,87.10
2018-10-16T21:06:01.005Z,87.30
2018-10-16T21:08:30.049Z,87.40
2018-10-16T21:10:59.043Z,87.50
2018-10-16T21:13:27.985Z,87.50
2018-10-16T21:15:57.529Z,87.50
2018-10-16T21:18:26.468Z,87.60
2018-10-16T21:20:55.396Z,87.70
2018-10-16T21:23:24.319Z,87.80
2018-10-16T21:25:53.252Z,87.90
2018-10-16T21:28:22.576Z,87.90
2018-10-16T21:30:51.569Z,88.20
2018-10-16T21:33:20.711Z,88.40
2018-10-16T21:35:49.750Z,88.40
2018-10-16T21:38:18.671Z,88.50
2018-10-16T21:40:47.614Z,88.40
2018-10-16T21:43:16.537Z,88.40
2018-10-16T21:45:45.511Z,88.40
2018-10-16T21:48:14.491Z,88.40
2018-10-16T21:50:43.456Z,88.50
2018-10-16T21:53:12.463Z,88.60
2018-10-16T21:55:41.551Z,88.80
2018-10-16T21:58:10.530Z,88.90
2018-10-16T22:00:44.894Z,89.10
2018-10-16T22:03:13.860Z,89.50
2018-10-16T22:05:42.844Z,89.30
2018-10-16T22:08:11.884Z,89.30
2018-10-16T22:10:40.935Z,89.20
2018-10-16T22:13:10.915Z,89.30
2018-10-16T22:15:40.030Z,89.30
2018-10-16T22:18:09.000Z,89.20
2018-10-16T22:20:37.940Z,89.30
2018-10-16T22:23:07.011Z,89.50
2018-10-16T22:25:36.131Z,89.50
2018-10-16T22:28:05.511Z,89.60
2018-10-16T22:30:34.460Z,89.60
2018-10-16T22:33:03.400Z,89.70
2018-10-16T22:35:32.340Z,89.60
2018-10-16T22:38:01.313Z,89.70
2018-10-16T22:40:30.301Z,89.80
2018-10-16T22:42:59.244Z,89.70
2018-10-16T22:45:28.376Z,89.60
2018-10-16T22:47:57.345Z,89.60
2018-10-16T22:50:26.292Z,89.80
2018-10-16T22:52:55.299Z,89.90
2018-10-16T22:55:24.401Z,90.00
2018-10-16T22:57:53.336Z,90.00
2018-10-16T23:00:22.646Z,90.00
2018-10-16T23:02:51.584Z,90.00
2018-10-16T23:05:20.542Z,90.00
2018-10-16T23:07:49.450Z,90.00
2018-10-16T23:10:18.383Z,90.10
2018-10-16T23:12:51.558Z,90.10
2018-10-16T23:15:20.707Z,90.10
2018-10-16T23:17:49.633Z,90.30
2018-10-16T23:20:18.660Z,90.10
2018-10-16T23:22:47.776Z,90.10
2018-10-16T23:25:16.848Z,90.10
2018-10-16T23:27:46.324Z,90.10
2018-10-16T23:30:15.261Z,90.10
2018-10-16T23:32:44.149Z,90.20
2018-10-16T23:35:13.505Z,90.20
2018-10-16T23:37:42.607Z,90.20
2018-10-16T23:40:11.903Z,90.20
2018-10-16T23:42:40.897Z,90.20
2018-10-16T23:45:09.901Z,90.20
2018-10-16T23:47:39.203Z,90.20
2018-10-16T23:50:08.163Z,90.10
2018-10-16T23:52:37.122Z,90.10
2018-10-16T23:55:07.549Z,90.20
2018-10-16T23:57:36.612Z,90.20
